createdAt,value
2022-12-12T00:01:36.444Z,21.67
2022-12-12T00:04:03.957Z,24.00
2022-12-12T00:06:30.900Z,22.75
2022-12-12T00:08:57.456Z,23.95
2022-12-12T00:11:24.881Z,21.23
2022-12-12T00:13:52.927Z,21.30
2022-12-12T00:16:19.615Z,22.77
2022-12-12T00:18:46.324Z,20.98
2022-12-12T00:21:23.544Z,21.13
2022-12-12T00:23:50.505Z,22.90
2022-12-12T00:26:26.230Z,21.75
2022-12-12T00:28:53.272Z,20.98
2022-12-12T00:31:21.162Z,21.75
2022-12-12T00:33:49.930Z,22.30
2022-12-12T00:36:18.322Z,20.10
2022-12-12T00:38:45.097Z,23.77
2022-12-12T00:41:12.142Z,21.88
2022-12-12T00:43:38.741Z,21.17
2022-12-12T00:46:05.803Z,20.38
2022-12-12T00:48:32.722Z,22.27
2022-12-12T00:51:09.567Z,21.05
2022-12-12T00:53:38.513Z,21.83
2022-12-12T00:56:05.821Z,22.85
2022-12-12T00:58:32.881Z,25.33
2022-12-12T01:01:06.404Z,24.95
2022-12-12T01:03:34.871Z,24.50
2022-12-12T01:06:01.838Z,23.42
2022-12-12T01:08:29.148Z,20.63
2022-12-12T01:10:56.561Z,22.48
2022-12-12T01:13:23.626Z,22.08
2022-12-12T01:15:50.191Z,21.95
2022-12-12T01:18:17.635Z,24.48
2022-12-12T01:20:44.477Z,22.00
2022-12-12T01:23:11.719Z,24.92
2022-12-12T01:25:38.482Z,22.95
2022-12-12T01:28:05.081Z,23.52
2022-12-12T01:30:32.392Z,21.05
2022-12-12T01:32:58.845Z,24.35
2022-12-12T01:35:26.911Z,21.42
2022-12-12T01:37:54.212Z,22.67
2022-12-12T01:40:29.298Z,20.98
2022-12-12T01:42:56.505Z,22.52
2022-12-12T01:46:00.245Z,20.80
2022-12-12T01:48:31.729Z,21.80
2022-12-12T01:51:02.193Z,22.73
2022-12-12T01:53:31.442Z,22.83
2022-12-12T01:55:59.668Z,21.88
2022-12-12T01:58:27.131Z,20.75
2022-12-12T02:00:53.660Z,19.05
2022-12-12T02:03:20.263Z,21.50
2022-12-12T02:05:51.849Z,18.67
2022-12-12T02:08:21.076Z,21.30
2022-12-12T02:10:48.731Z,21.75
2022-12-12T02:13:18.942Z,21.92
2022-12-12T02:15:58.869Z,27.73
2022-12-12T02:18:44.731Z,23.05
2022-12-12T02:21:21.363Z,21.98
2022-12-12T02:24:25.608Z,26.25
2022-12-12T02:27:11.299Z,24.95
2022-12-12T02:29:40.727Z,26.45
2022-12-12T02:32:18.173Z,21.88
2022-12-12T02:34:55.443Z,23.48
2022-12-12T02:37:31.099Z,24.02
2022-12-12T02:40:13.949Z,21.70
2022-12-12T02:45:42.774Z,19.52
2022-12-12T02:48:22.389Z,23.90
2022-12-12T02:50:51.970Z,23.58
2022-12-12T02:53:23.645Z,24.90
2022-12-12T02:56:00.880Z,17.65
2022-12-12T02:58:27.518Z,21.48
2022-12-12T03:01:13.154Z,24.80
2022-12-12T03:04:14.164Z,25.83
2022-12-12T03:07:18.664Z,24.27
2022-12-12T03:10:05.398Z,22.08
2022-12-12T03:13:08.638Z,21.75
2022-12-12T03:18:33.477Z,23.00
2022-12-12T03:21:03.537Z,19.88
2022-12-12T03:23:40.173Z,23.63
2022-12-12T03:26:17.037Z,24.67
2022-12-12T03:28:58.305Z,23.08
2022-12-12T03:31:28.599Z,24.02
2022-12-12T03:34:01.006Z,26.35
2022-12-12T03:36:37.577Z,23.33
2022-12-12T03:39:09.307Z,21.88
2022-12-12T03:41:41.613Z,20.77
2022-12-12T03:44:38.169Z,22.98
2022-12-12T03:47:13.295Z,21.95
2022-12-12T03:50:00.049Z,24.17
2022-12-12T03:52:39.738Z,22.17
2022-12-12T03:55:14.838Z,25.27
2022-12-12T03:57:51.899Z,23.75
2022-12-12T04:00:18.908Z,24.05
2022-12-12T04:02:53.672Z,23.75
2022-12-12T04:06:01.609Z,21.48
2022-12-12T04:08:28.781Z,23.30
2022-12-12T04:11:20.619Z,28.17
2022-12-12T04:14:03.863Z,21.05
2022-12-12T04:19:07.004Z,27.10
2022-12-12T04:22:05.400Z,32.45
2022-12-12T04:24:42.418Z,32.85
2022-12-12T04:27:30.627Z,27.88
2022-12-12T04:30:08.731Z,27.55
2022-12-12T04:32:44.850Z,25.20
2022-12-12T04:35:17.632Z,27.58
2022-12-12T04:37:51.877Z,25.48
2022-12-12T04:40:40.904Z,26.55
2022-12-12T04:43:16.298Z,26.20
2022-12-12T04:45:51.417Z,27.25
2022-12-12T04:48:22.301Z,29.75
2022-12-12T04:50:52.690Z,29.98
2022-12-12T04:53:29.482Z,34.00
2022-12-12T04:55:57.401Z,26.50
2022-12-12T04:58:24.826Z,25.27
2022-12-12T05:01:08.538Z,28.23
2022-12-12T05:03:53.312Z,29.48
2022-12-12T05:06:24.301Z,27.08
2022-12-12T05:08:54.400Z,23.42
2022-12-12T05:11:22.291Z,23.48
2022-12-12T05:13:49.760Z,26.67
2022-12-12T05:16:28.393Z,23.63
2022-12-12T05:18:55.072Z,24.23
2022-12-12T05:21:21.749Z,25.60
2022-12-12T05:23:48.293Z,33.88
2022-12-12T05:26:23.083Z,26.80
2022-12-12T05:28:50.300Z,27.17
2022-12-12T05:31:17.385Z,27.50
2022-12-12T05:33:44.412Z,25.52
2022-12-12T05:36:11.525Z,28.35
2022-12-12T05:38:38.496Z,27.05
2022-12-12T05:41:05.324Z,31.08
2022-12-12T05:43:32.903Z,30.63
2022-12-12T05:46:00.193Z,25.05
2022-12-12T05:48:26.927Z,27.23
2022-12-12T05:50:54.203Z,29.00
2022-12-12T05:53:21.230Z,27.98
2022-12-12T05:55:50.607Z,33.20
2022-12-12T05:58:18.137Z,29.52
2022-12-12T06:00:47.880Z,28.98
2022-12-12T06:03:15.060Z,27.80
2022-12-12T06:05:41.835Z,28.20
2022-12-12T06:08:08.365Z,30.23
2022-12-12T06:10:34.946Z,30.70
2022-12-12T06:13:01.488Z,29.98
2022-12-12T06:15:28.065Z,26.00
2022-12-12T06:17:55.024Z,30.60
2022-12-12T06:20:21.571Z,26.80
2022-12-12T06:22:53.377Z,25.40
2022-12-12T06:25:20.511Z,29.55
2022-12-12T06:27:46.991Z,28.38
2022-12-12T06:30:14.052Z,32.95
2022-12-12T06:32:40.582Z,26.77
2022-12-12T06:35:07.244Z,35.38
2022-12-12T06:37:33.753Z,32.78
2022-12-12T06:40:00.408Z,31.23
2022-12-12T06:42:26.904Z,33.97
2022-12-12T06:44:53.392Z,31.65
2022-12-12T06:47:19.899Z,32.80
2022-12-12T06:49:46.341Z,24.45
2022-12-12T06:52:12.916Z,29.52
2022-12-12T06:54:39.486Z,32.95
2022-12-12T06:57:05.978Z,35.50
2022-12-12T06:59:32.497Z,33.13
2022-12-12T07:01:59.380Z,32.70
2022-12-12T07:04:25.874Z,36.63
2022-12-12T07:06:52.806Z,34.08
2022-12-12T07:09:20.405Z,32.85
2022-12-12T07:11:46.988Z,33.83
2022-12-12T07:14:13.481Z,36.17
2022-12-12T07:16:40.011Z,35.33
2022-12-12T07:19:06.802Z,35.00
2022-12-12T07:21:33.295Z,33.17
2022-12-12T07:23:59.781Z,31.98
2022-12-12T07:26:26.393Z,32.05
2022-12-12T07:28:52.972Z,28.08
2022-12-12T07:31:22.496Z,31.75
2022-12-12T07:33:49.010Z,36.25
2022-12-12T07:36:17.030Z,34.38
2022-12-12T07:38:44.082Z,35.55
2022-12-12T07:41:13.923Z,32.33
2022-12-12T07:43:44.312Z,36.08
2022-12-12T07:46:15.390Z,32.72
2022-12-12T07:48:42.320Z,39.80
2022-12-12T07:51:09.378Z,56.50
2022-12-12T07:53:36.228Z,49.28
2022-12-12T07:56:07.565Z,46.70
2022-12-12T07:58:34.731Z,36.97
2022-12-12T08:01:01.368Z,38.83
2022-12-12T08:03:27.922Z,31.35
2022-12-12T08:05:54.411Z,37.20
2022-12-12T08:08:21.383Z,36.20
2022-12-12T08:10:48.050Z,32.63
2022-12-12T08:13:14.542Z,41.92
2022-12-12T08:15:42.646Z,42.30
2022-12-12T08:18:09.197Z,38.05
2022-12-12T08:20:39.493Z,37.75
2022-12-12T08:23:06.150Z,36.00
2022-12-12T08:25:35.317Z,39.47
2022-12-12T08:28:02.262Z,32.15
2022-12-12T08:30:28.811Z,35.60
2022-12-12T08:32:55.358Z,33.13
2022-12-12T08:35:21.831Z,37.78
2022-12-12T08:37:48.381Z,34.55
2022-12-12T08:40:15.031Z,33.72
2022-12-12T08:42:41.583Z,30.75
2022-12-12T08:45:08.504Z,33.50
2022-12-12T08:47:35.156Z,38.80
2022-12-12T08:50:01.686Z,38.53
2022-12-12T08:52:28.224Z,32.63
2022-12-12T08:54:54.742Z,41.20
2022-12-12T08:57:25.780Z,38.72
2022-12-12T08:59:52.702Z,33.70
2022-12-12T09:02:19.258Z,38.33
2022-12-12T09:04:45.872Z,42.65
2022-12-12T09:07:12.418Z,38.17
2022-12-12T09:09:41.748Z,34.80
2022-12-12T09:12:08.335Z,36.33
2022-12-12T09:14:34.814Z,39.47
2022-12-12T09:17:01.374Z,38.70
2022-12-12T09:19:27.928Z,40.97
2022-12-12T09:21:54.547Z,35.60
2022-12-12T09:24:21.098Z,36.72
2022-12-12T09:26:48.614Z,33.38
2022-12-12T09:29:15.201Z,36.25
2022-12-12T09:31:41.744Z,28.48
2022-12-12T09:34:08.244Z,31.67
2022-12-12T09:36:34.729Z,28.98
2022-12-12T09:39:01.532Z,33.97
2022-12-12T09:41:30.590Z,32.00
2022-12-12T09:44:08.002Z,30.67
2022-12-12T09:46:39.919Z,32.83
2022-12-12T09:49:39.927Z,30.15
2022-12-12T09:52:31.184Z,34.15
2022-12-12T09:55:00.538Z,30.98
2022-12-12T09:57:59.002Z,35.53
2022-12-12T10:00:27.222Z,32.15
2022-12-12T10:03:12.379Z,32.72
2022-12-12T10:06:13.857Z,29.67
2022-12-12T10:08:55.940Z,26.50
2022-12-12T10:11:49.740Z,30.77
2022-12-12T10:14:21.002Z,28.13
2022-12-12T10:16:51.220Z,27.88
2022-12-12T10:19:27.545Z,25.70
2022-12-12T10:21:58.865Z,26.00
2022-12-12T10:24:46.886Z,29.05
2022-12-12T10:27:14.495Z,29.02
2022-12-12T10:29:48.590Z,25.40
2022-12-12T10:32:42.715Z,25.02
2022-12-12T10:35:21.334Z,27.65
2022-12-12T10:38:03.118Z,27.05
2022-12-12T10:40:45.382Z,28.58
2022-12-12T10:43:19.806Z,24.52
2022-12-12T10:46:07.992Z,24.92
2022-12-12T10:48:34.574Z,23.58
2022-12-12T10:51:04.595Z,23.30
2022-12-12T10:53:32.249Z,22.80
2022-12-12T10:56:05.096Z,23.00
2022-12-12T10:58:44.019Z,24.95
2022-12-12T11:01:38.495Z,22.08
2022-12-12T11:04:08.574Z,23.73
2022-12-12T11:06:55.746Z,25.77
2022-12-12T11:09:27.895Z,24.50
2022-12-12T11:12:01.549Z,25.40
2022-12-12T11:14:35.220Z,23.30
2022-12-12T11:17:26.575Z,23.33
2022-12-12T11:19:55.273Z,25.15
2022-12-12T11:22:22.238Z,20.95
2022-12-12T11:24:50.117Z,20.83
2022-12-12T11:27:21.657Z,21.10
2022-12-12T11:30:21.311Z,25.05
2022-12-12T11:32:53.215Z,28.35
2022-12-12T11:35:31.771Z,23.02
2022-12-12T11:38:02.701Z,23.80
2022-12-12T11:40:32.619Z,21.52
2022-12-12T11:43:26.132Z,22.92
2022-12-12T11:45:58.792Z,22.17
2022-12-12T11:48:40.125Z,20.73
2022-12-12T11:51:07.271Z,22.70
2022-12-12T11:53:38.620Z,22.13
2022-12-12T11:56:31.297Z,19.40
2022-12-12T11:59:07.812Z,21.13
2022-12-12T12:02:10.925Z,22.50
2022-12-12T12:04:53.583Z,23.95
2022-12-12T12:10:41.048Z,23.13
2022-12-12T12:13:42.620Z,19.17
2022-12-12T12:16:21.353Z,21.90
2022-12-12T12:19:09.782Z,22.10
2022-12-12T12:21:48.441Z,21.77
2022-12-12T12:24:55.795Z,21.52
2022-12-12T12:27:30.317Z,24.55
2022-12-12T12:30:19.314Z,23.15
2022-12-12T12:33:10.225Z,21.65
2022-12-12T12:35:52.964Z,25.00
2022-12-12T12:38:26.515Z,26.48
2022-12-12T12:41:43.884Z,20.98
2022-12-12T12:44:30.287Z,20.65
2022-12-12T12:47:26.319Z,20.80
2022-12-12T12:50:13.657Z,22.70
2022-12-12T12:52:47.951Z,17.63
2022-12-12T12:55:21.968Z,24.58
2022-12-12T12:57:50.763Z,24.60
2022-12-12T13:00:21.261Z,22.85
2022-12-12T13:02:58.972Z,19.23
2022-12-12T13:05:39.680Z,16.75
2022-12-12T13:08:27.993Z,22.60
2022-12-12T13:11:03.226Z,22.20
2022-12-12T13:13:39.645Z,19.30
2022-12-12T13:16:13.597Z,18.92
2022-12-12T13:18:45.359Z,17.25
2022-12-12T13:21:40.474Z,18.77
2022-12-12T13:24:21.824Z,19.33
2022-12-12T13:26:53.026Z,20.58
2022-12-12T13:29:41.712Z,17.38
2022-12-12T13:32:27.848Z,18.80
2022-12-12T13:34:59.607Z,19.92
2022-12-12T13:37:26.966Z,19.45
2022-12-12T13:40:06.412Z,18.23
2022-12-12T13:43:26.519Z,20.40
2022-12-12T13:45:54.043Z,18.08
2022-12-12T13:48:29.580Z,19.95
2022-12-12T13:51:30.934Z,18.73
2022-12-12T13:54:11.996Z,18.52
2022-12-12T13:56:42.272Z,18.83
2022-12-12T13:59:26.817Z,21.27
2022-12-12T14:01:57.613Z,20.13
2022-12-12T14:04:28.784Z,21.20
2022-12-12T14:07:14.035Z,22.85
2022-12-12T14:09:49.098Z,19.98
2022-12-12T14:12:20.406Z,17.38
2022-12-12T14:14:59.322Z,18.08
2022-12-12T14:17:29.521Z,24.33
2022-12-12T14:19:58.746Z,17.25
2022-12-12T14:22:28.380Z,19.02
2022-12-12T14:25:08.219Z,18.08
2022-12-12T14:27:49.930Z,17.05
2022-12-12T14:30:41.171Z,21.63
2022-12-12T14:33:39.933Z,20.00
2022-12-12T14:36:30.746Z,18.77
2022-12-12T14:39:00.190Z,14.93
2022-12-12T14:41:34.223Z,15.40
2022-12-12T14:44:36.616Z,19.10
2022-12-12T14:46:51.579Z,22.35
2022-12-12T14:49:19.351Z,27.10
2022-12-12T14:51:50.602Z,26.73
2022-12-12T14:54:20.037Z,23.98
2022-12-12T14:56:53.275Z,18.20
2022-12-12T14:59:27.393Z,23.13
2022-12-12T15:01:59.663Z,21.48
2022-12-12T15:04:30.220Z,18.92
2022-12-12T15:06:58.555Z,21.75
2022-12-12T15:09:32.707Z,21.00
2022-12-12T15:12:08.286Z,24.23
2022-12-12T15:14:34.776Z,19.83
2022-12-12T15:17:09.213Z,18.52
2022-12-12T15:19:55.714Z,18.98
2022-12-12T15:22:26.273Z,14.90
2022-12-12T15:24:57.912Z,17.40
2022-12-12T15:27:28.170Z,15.70
2022-12-12T15:29:56.533Z,17.42
2022-12-12T15:32:25.781Z,17.08
2022-12-12T15:35:08.447Z,15.57
2022-12-12T15:37:37.334Z,13.85
2022-12-12T15:40:06.986Z,15.25
2022-12-12T15:42:33.749Z,19.45
2022-12-12T15:45:00.909Z,18.33
2022-12-12T15:47:27.423Z,17.73
2022-12-12T15:49:53.944Z,18.08
2022-12-12T15:52:20.362Z,15.50
2022-12-12T15:54:53.397Z,15.77
2022-12-12T15:57:23.325Z,21.58
2022-12-12T15:59:56.910Z,19.45
2022-12-12T16:02:24.265Z,32.40
2022-12-12T16:04:55.733Z,33.28
2022-12-12T16:07:23.461Z,29.98
2022-12-12T16:10:20.754Z,25.25
2022-12-12T16:12:58.525Z,29.80
2022-12-12T16:15:37.653Z,25.83
2022-12-12T16:18:17.869Z,30.17
2022-12-12T16:20:51.421Z,33.10
2022-12-12T16:23:28.714Z,24.50
2022-12-12T16:25:55.794Z,29.77
2022-12-12T16:28:25.797Z,30.00
2022-12-12T16:30:59.146Z,29.15
2022-12-12T16:33:30.476Z,22.70
2022-12-12T16:36:00.530Z,21.25
2022-12-12T16:38:28.604Z,19.45
2022-12-12T16:40:58.284Z,24.38
2022-12-12T16:43:25.653Z,24.67
2022-12-12T16:45:54.174Z,39.22
2022-12-12T16:48:23.767Z,43.20
2022-12-12T16:50:52.294Z,40.17
2022-12-12T16:53:19.999Z,43.67
2022-12-12T16:55:49.028Z,33.47
2022-12-12T16:58:15.837Z,31.58
2022-12-12T17:00:43.362Z,40.20
2022-12-12T17:03:14.197Z,32.97
2022-12-12T17:05:42.389Z,29.63
2022-12-12T17:08:09.183Z,30.10
2022-12-12T17:10:36.494Z,30.67
2022-12-12T17:13:07.789Z,29.15
2022-12-12T17:15:34.662Z,32.60
2022-12-12T17:18:01.441Z,33.78
2022-12-12T17:20:37.627Z,32.17
2022-12-12T17:25:50.656Z,30.27
2022-12-12T17:28:19.810Z,22.27
2022-12-12T17:30:49.729Z,24.67
2022-12-12T17:33:19.613Z,23.33
2022-12-12T17:35:46.475Z,24.17
2022-12-12T17:38:16.350Z,23.25
2022-12-12T17:40:43.438Z,23.58
2022-12-12T17:43:09.980Z,22.45
2022-12-12T17:45:36.486Z,19.02
2022-12-12T17:48:04.675Z,24.42
2022-12-12T17:50:34.026Z,22.40
2022-12-12T17:55:51.496Z,24.17
2022-12-12T17:58:16.479Z,22.08
2022-12-12T18:00:43.045Z,21.33
2022-12-12T18:03:09.747Z,25.13
2022-12-12T18:05:36.190Z,25.27
2022-12-12T18:08:02.725Z,23.17
2022-12-12T18:10:29.259Z,23.60
2022-12-12T18:12:56.029Z,23.38
2022-12-12T18:15:22.562Z,28.77
2022-12-12T18:17:49.042Z,25.80
2022-12-12T18:20:15.791Z,30.65
2022-12-12T18:22:42.534Z,31.35
2022-12-12T18:25:09.354Z,26.63
2022-12-12T18:27:38.025Z,27.15
2022-12-12T18:30:04.941Z,28.10
2022-12-12T18:32:31.426Z,29.95
2022-12-12T18:34:59.439Z,36.67
2022-12-12T18:37:27.469Z,31.10
2022-12-12T18:39:54.664Z,25.35
2022-12-12T18:42:21.623Z,28.35
2022-12-12T18:44:48.078Z,22.17
2022-12-12T18:47:14.520Z,22.77
2022-12-12T18:49:41.021Z,28.30
2022-12-12T18:52:08.160Z,32.30
2022-12-12T18:54:34.644Z,33.42
2022-12-12T18:57:01.228Z,25.25
2022-12-12T18:59:27.716Z,23.35
2022-12-12T19:01:54.247Z,25.88
2022-12-12T19:04:23.701Z,23.90
2022-12-12T19:06:51.545Z,24.48
2022-12-12T19:09:19.381Z,22.42
2022-12-12T19:11:47.061Z,25.38
2022-12-12T19:14:15.330Z,21.88
2022-12-12T19:16:43.085Z,26.67
2022-12-12T19:19:10.435Z,24.92
2022-12-12T19:21:38.375Z,29.50
2022-12-12T19:24:08.970Z,28.65
2022-12-12T19:26:37.014Z,30.88
2022-12-12T19:29:11.566Z,29.00
2022-12-12T19:31:39.559Z,28.10
2022-12-12T19:34:08.581Z,30.02
2022-12-12T19:36:35.938Z,34.75
2022-12-12T19:39:04.979Z,28.35
2022-12-12T19:41:31.487Z,27.27
2022-12-12T19:44:04.126Z,31.77
2022-12-12T19:46:32.245Z,28.23
2022-12-12T19:49:01.422Z,31.80
2022-12-12T19:51:32.440Z,30.75
2022-12-12T19:54:00.440Z,30.83
2022-12-12T19:56:29.487Z,34.00
2022-12-12T19:58:57.137Z,33.97
2022-12-12T20:01:28.260Z,31.33
2022-12-12T20:04:02.976Z,34.22
2022-12-12T20:06:29.635Z,35.92
2022-12-12T20:08:59.479Z,29.88
2022-12-12T20:11:26.904Z,29.35
2022-12-12T20:13:57.596Z,32.33
2022-12-12T20:16:27.963Z,34.28
2022-12-12T20:18:56.274Z,28.58
2022-12-12T20:21:59.006Z,34.28
2022-12-12T20:24:12.486Z,34.30
2022-12-12T20:26:40.209Z,32.75
2022-12-12T20:29:07.766Z,36.78
2022-12-12T20:31:36.990Z,36.28
2022-12-12T20:34:04.060Z,33.17
2022-12-12T20:36:33.304Z,29.48
2022-12-12T20:39:01.792Z,31.70
2022-12-12T20:41:31.115Z,36.00
2022-12-12T20:43:58.792Z,32.67
2022-12-12T20:46:34.105Z,29.88
2022-12-12T20:49:02.733Z,33.47
2022-12-12T20:54:22.096Z,35.03
2022-12-12T20:56:49.733Z,29.42
2022-12-12T20:59:16.235Z,36.17
2022-12-12T21:01:42.792Z,31.65
2022-12-12T21:04:09.467Z,32.03
2022-12-12T21:06:43.123Z,28.88
2022-12-12T21:09:11.676Z,30.45
2022-12-12T21:11:38.921Z,30.35
2022-12-12T21:14:06.985Z,30.77
2022-12-12T21:16:36.948Z,34.00
2022-12-12T21:19:07.985Z,31.70
2022-12-12T21:21:34.492Z,33.97
2022-12-12T21:24:01.645Z,31.55
2022-12-12T21:26:30.558Z,40.60
2022-12-12T21:28:58.390Z,54.85
2022-12-12T21:31:30.769Z,52.60
2022-12-12T21:33:57.792Z,71.80
2022-12-12T21:36:26.519Z,67.72
2022-12-12T21:38:54.459Z,73.30
2022-12-12T21:41:22.869Z,49.95
2022-12-12T21:43:49.974Z,81.55
2022-12-12T21:46:19.896Z,59.20
2022-12-12T21:48:46.790Z,42.15
2022-12-12T21:51:16.036Z,51.17
2022-12-12T21:53:43.004Z,49.42
2022-12-12T21:56:17.624Z,37.97
2022-12-12T21:58:46.137Z,32.97
2022-12-12T22:01:18.157Z,35.30
2022-12-12T22:03:46.284Z,31.42
2022-12-12T22:06:24.205Z,37.47
2022-12-12T22:08:51.494Z,33.35
2022-12-12T22:11:23.810Z,34.70
2022-12-12T22:14:07.171Z,36.40
2022-12-12T22:16:34.466Z,33.70
2022-12-12T22:19:06.030Z,35.78
2022-12-12T22:21:33.808Z,28.52
2022-12-12T22:24:00.868Z,36.30
2022-12-12T22:26:32.615Z,43.28
2022-12-12T22:29:01.866Z,46.40
2022-12-12T22:31:34.744Z,55.00
2022-12-12T22:34:03.923Z,53.08
2022-12-12T22:36:33.701Z,39.17
2022-12-12T22:39:01.091Z,47.67
2022-12-12T22:41:29.003Z,45.60
2022-12-12T22:43:57.698Z,41.42
2022-12-12T22:46:26.054Z,51.10
2022-12-12T22:48:54.971Z,53.13
2022-12-12T22:51:24.155Z,52.25
2022-12-12T22:53:51.323Z,45.38
2022-12-12T22:56:17.918Z,41.15
2022-12-12T22:58:44.328Z,37.15
2022-12-12T23:01:16.462Z,42.60
2022-12-12T23:03:43.253Z,38.90
2022-12-12T23:06:14.060Z,36.85
2022-12-12T23:08:41.804Z,37.50
2022-12-12T23:11:14.729Z,35.00
2022-12-12T23:13:44.174Z,35.40
2022-12-12T23:16:19.377Z,35.78
2022-12-12T23:18:47.431Z,33.65
2022-12-12T23:21:17.464Z,32.88
2022-12-12T23:23:45.260Z,37.42
2022-12-12T23:26:15.090Z,35.05
2022-12-12T23:28:42.945Z,32.42
2022-12-12T23:31:16.068Z,33.97
2022-12-12T23:33:42.885Z,32.88
2022-12-12T23:36:14.265Z,34.83
2022-12-12T23:38:41.815Z,34.42
2022-12-12T23:41:10.865Z,35.75
2022-12-12T23:43:37.757Z,27.30
2022-12-12T23:46:06.516Z,32.75
2022-12-12T23:48:33.481Z,36.38
2022-12-12T23:51:00.309Z,36.38
2022-12-12T23:53:30.868Z,31.58
2022-12-12T23:56:02.589Z,36.47
2022-12-12T23:58:29.038Z,29.48
